KFLD

Details ICAO KFLD (FLD)
Name Fond Du Lac Co
Region United States
Timezone America/Chicago (UTC-5.0)
Plans Departing 15
Arriving 18
Stats Elevation 808 ft / 246 m (AMSL)
Location 43.771234° -88.489155°
Runways 2
Magnetic Variation 3.577° W
Sunrise 2018-05-22 10:23:12 UTC / 2018-05-22 05:23:12 Local
Sunset 2018-05-23 01:20:56 UTC / 2018-05-22 20:20:56 Local
Advertisement - Login to hide

Runways

ID Width Length Bearing (true) Bearing (mag) Surface Threshold Offset Overrun Length
09 75 ft / 23 m 3,593 ft / 1,095 m 91.66° 95.24° Asphalt 0 ft / 0 m 0 ft / 0 m
18 100 ft / 30 m 5,948 ft / 1,813 m 180.05° 183.63° Asphalt 0 ft / 0 m 0 ft / 0 m
27 75 ft / 23 m 3,593 ft / 1,095 m 271.67° 275.25° Asphalt 0 ft / 0 m 0 ft / 0 m
36 100 ft / 30 m 5,948 ft / 1,813 m 0.05° 3.63° Asphalt 0 ft / 0 m 0 ft / 0 m

Approach Navaids

Runway Type Ident Frequency Range Bearing (true) Bearing (mag) Slope Elevation
36 Localiser IFLD 108.30 MHz 18 nm / 33 km 358.14° 1.72° - 782 ft / 238 m (AMSL)

Map

Weather


0- 5 10 15 20 25 30 35+ Temperature / ° C

Clouds and Precipitation
Forecast for 2018-05-22 18:00 UTC. Updated 5 hours ago

Ground ~20,000 ft ~40,000 ft Winds

METAR

KFLD 222117Z AUTO 31004KT 10SM BKN030 20/14 A3004 RMK AO2 T02000139

TAF

Not found

Frequencies

Recorded 134.00 MHz ASOS
Unicom 122.80 MHz CTAF/UNICOM
Warning: Do not use this data for real-world aviation or navigation. No guarantee of current accuracy is given.